Galileo — SX2040 — position and weather

sailwx.info

Track history (hours):
 
Tides and Currents Weather Stations Pressure Air Temp Water Temp Dewpoint Dewpoint Depression Visibility Wind Speed Wind Dir Waves Ship Positions

Galileo

Last reported at 2016-Aug-27 23:33 UTC. Time now 2016-Aug-28 00:28 UTC.
Position N 37°45' E 023°26'.

Length 40 m; draft 3 m.

Type: Passenger vessel. MMSI: 239299000.

Date/timePositionNaut miles runAvg speedWind from/ knotsBaromVisibWave heightAir tempDewpointWater temp
2016-Aug-27 23:33N 37°45' E 023°26'0 0.0
2016-Aug-27 22:21N 37°45' E 023°26'0 0.0
2016-Aug-27 15:16N 37°45' E 023°26'2 3.4
2016-Aug-27 14:33N 37°47' E 023°27'1010.0
2016-Aug-27 13:33N 37°53' E 023°36'3 3.2
2016-Aug-27 12:33N 37°56' E 023°39'0 0.0
2016-Aug-27 11:33N 37°56' E 023°39'0 0.0
2016-Aug-27 10:33N 37°56' E 023°39'0 0.0
2016-Aug-27 09:33N 37°56' E 023°39'0 0.0
2016-Aug-27 08:33N 37°56' E 023°39'0 0.0
2016-Aug-27 07:33N 37°56' E 023°39'0 0.0
2016-Aug-27 06:33N 37°56' E 023°39'0 0.0
2016-Aug-27 04:33N 37°56' E 023°39'0 0.0
2016-Aug-27 03:33N 37°56' E 023°39'0 0.0
2016-Aug-27 02:33N 37°56' E 023°39'0 0.0
2016-Aug-27 01:33N 37°56' E 023°39'0 0.0
2016-Aug-27 00:34N 37°56' E 023°39'0 0.0
2016-Aug-26 23:33N 37°56' E 023°39'0 0.0
2016-Aug-26 22:33N 37°56' E 023°39'0 0.0
2016-Aug-26 21:33N 37°56' E 023°39'0 0.0
2016-Aug-26 20:33N 37°56' E 023°39'0 0.0
2016-Aug-26 19:34N 37°56' E 023°39'0 0.0
2016-Aug-26 18:33N 37°56' E 023°39'0 0.0
2016-Aug-26 17:33N 37°56' E 023°39'0 0.0
2016-Aug-26 16:33N 37°56' E 023°39'3 3.3
2016-Aug-26 15:34N 37°53' E 023°38'9 9.2
2016-Aug-26 14:33N 37°44' E 023°35'9 9.2
2016-Aug-26 13:33N 37°35' E 023°34'9 8.7
2016-Aug-26 12:31N 37°26' E 023°33'9 9.0
2016-Aug-26 11:33N 37°21' E 023°24'9 9.3
2016-Aug-26 10:32N 37°17' E 023°13'5 0.2
2016-Aug-25 04:33N 37°13' E 023°08'10 9.7
2016-Aug-25 03:33N 37°13' E 023°21'71 9.5
2016-Aug-24 20:04N 37°21' E 024°49'610.6
2016-Aug-24 19:32N 37°22' E 024°56'7 0.6
2016-Aug-24 06:13N 37°27' E 025°03'12 7.3
2016-Aug-24 04:34N 37°23' E 025°17'9 8.8
2016-Aug-24 03:33N 37°15' E 025°12'11 0.6
2016-Aug-23 10:27N 37°05' E 025°06'  
2016-Aug-21 01:23N 37°15' E 023°45'910.3
2016-Aug-21 00:32N 37°22' E 023°38'1010.1
2016-Aug-20 23:33N 37°29' E 023°30'2 2.2
2016-Aug-20 22:33N 37°30' E 023°27'0 0.0
2016-Aug-20 21:34N 37°30' E 023°27'0 0.0
2016-Aug-20 20:33N 37°30' E 023°27'0 0.0
2016-Aug-20 19:33N 37°30' E 023°27'0 0.0
2016-Aug-20 18:33N 37°30' E 023°27'0 0.0
2016-Aug-20 17:33N 37°30' E 023°27'0 0.0
2016-Aug-20 16:33N 37°30' E 023°27'0 0.1
2016-Aug-20 15:33N 37°30' E 023°27'8 7.8
2016-Aug-20 14:33N 37°38' E 023°30'1010.3
2016-Aug-20 13:33N 37°47' E 023°35'9 9.3
2016-Aug-20 12:33N 37°56' E 023°39'0 0.0
2016-Aug-20 11:33N 37°56' E 023°39'0 0.0
2016-Aug-20 10:33N 37°56' E 023°39'0 0.0
2016-Aug-20 09:33N 37°56' E 023°39'0 0.0
2016-Aug-20 08:33N 37°56' E 023°39'0 0.0
2016-Aug-20 07:34N 37°56' E 023°39'0 0.0
2016-Aug-20 06:33N 37°56' E 023°39'0 0.0
2016-Aug-20 05:33N 37°56' E 023°39'0 0.0
2016-Aug-20 04:33N 37°56' E 023°39'0 0.0
2016-Aug-20 03:33N 37°56' E 023°39'0 0.0
2016-Aug-20 02:33N 37°56' E 023°39'5 5.0
2016-Aug-20 01:33N 37°51' E 023°42'10 9.5
2016-Aug-20 00:33N 37°43' E 023°48'10 9.6
2016-Aug-19 23:33N 37°38' E 023°58'53 9.8
2016-Aug-19 18:08N 37°30' E 025°04'610.1
2016-Aug-19 17:33N 37°29' E 025°12'7 6.6
2016-Aug-19 16:33N 37°28' E 025°20'0 0.0
2016-Aug-19 15:27N 37°28' E 025°20'0 0.0
2016-Aug-19 14:33N 37°28' E 025°20'0 0.0
2016-Aug-19 13:33N 37°28' E 025°20'0 0.0
2016-Aug-19 12:32N 37°28' E 025°20'0 0.0
2016-Aug-19 11:32N 37°28' E 025°20'0 0.0
2016-Aug-19 10:29N 37°28' E 025°20'0 0.0
2016-Aug-19 09:33N 37°28' E 025°20'0 0.0
2016-Aug-19 08:33N 37°28' E 025°20'0 0.0
2016-Aug-19 07:33N 37°28' E 025°20'0 0.0
2016-Aug-19 06:33N 37°28' E 025°20'0 0.0
2016-Aug-19 05:25N 37°28' E 025°20'0 0.0
2016-Aug-19 04:29N 37°28' E 025°20'5 5.9
2016-Aug-19 03:33N 37°23' E 025°17'1010.1
2016-Aug-19 02:33N 37°13' E 025°19'10 9.7
2016-Aug-19 01:33N 37°03' E 025°18'57 2.3
2016-Aug-18 01:13N 37°08' E 024°07'7 9.9
2016-Aug-18 00:33N 37°11' E 024°00'1010.3
2016-Aug-17 23:33N 37°18' E 023°50'  
Track history (hours):
 
Tides and Currents Weather Stations Pressure Air Temp Water Temp Dewpoint Dewpoint Depression Visibility Wind Speed Wind Dir Waves Ship Positions

Galileo

Last reported at 2016-Aug-27 23:33 UTC. Time now 2016-Aug-28 00:28 UTC.
Position N 37°45' E 023°26'.

Length 40 m; draft 3 m.

Type: Passenger vessel. MMSI: 239299000.

Date/timePositionNaut miles runAvg speedWind from/ knotsBaromVisibWave heightAir tempDewpointWater temp
2016-Aug-27 23:33N 37°45' E 023°26'0 0.0
2016-Aug-27 22:21N 37°45' E 023°26'0 0.0
2016-Aug-27 15:16N 37°45' E 023°26'2 3.4
2016-Aug-27 14:33N 37°47' E 023°27'1010.0
2016-Aug-27 13:33N 37°53' E 023°36'3 3.2
2016-Aug-27 12:33N 37°56' E 023°39'0 0.0
2016-Aug-27 11:33N 37°56' E 023°39'0 0.0
2016-Aug-27 10:33N 37°56' E 023°39'0 0.0
2016-Aug-27 09:33N 37°56' E 023°39'0 0.0
2016-Aug-27 08:33N 37°56' E 023°39'0 0.0
2016-Aug-27 07:33N 37°56' E 023°39'0 0.0
2016-Aug-27 06:33N 37°56' E 023°39'0 0.0
2016-Aug-27 04:33N 37°56' E 023°39'0 0.0
2016-Aug-27 03:33N 37°56' E 023°39'0 0.0
2016-Aug-27 02:33N 37°56' E 023°39'0 0.0
2016-Aug-27 01:33N 37°56' E 023°39'0 0.0
2016-Aug-27 00:34N 37°56' E 023°39'0 0.0
2016-Aug-26 23:33N 37°56' E 023°39'0 0.0
2016-Aug-26 22:33N 37°56' E 023°39'0 0.0
2016-Aug-26 21:33N 37°56' E 023°39'0 0.0
2016-Aug-26 20:33N 37°56' E 023°39'0 0.0
2016-Aug-26 19:34N 37°56' E 023°39'0 0.0
2016-Aug-26 18:33N 37°56' E 023°39'0 0.0
2016-Aug-26 17:33N 37°56' E 023°39'0 0.0
2016-Aug-26 16:33N 37°56' E 023°39'3 3.3
2016-Aug-26 15:34N 37°53' E 023°38'9 9.2
2016-Aug-26 14:33N 37°44' E 023°35'9 9.2
2016-Aug-26 13:33N 37°35' E 023°34'9 8.7
2016-Aug-26 12:31N 37°26' E 023°33'9 9.0
2016-Aug-26 11:33N 37°21' E 023°24'9 9.3
2016-Aug-26 10:32N 37°17' E 023°13'5 0.2
2016-Aug-25 04:33N 37°13' E 023°08'10 9.7
2016-Aug-25 03:33N 37°13' E 023°21'71 9.5
2016-Aug-24 20:04N 37°21' E 024°49'610.6
2016-Aug-24 19:32N 37°22' E 024°56'7 0.6
2016-Aug-24 06:13N 37°27' E 025°03'12 7.3
2016-Aug-24 04:34N 37°23' E 025°17'9 8.8
2016-Aug-24 03:33N 37°15' E 025°12'11 0.6
2016-Aug-23 10:27N 37°05' E 025°06'  
2016-Aug-21 01:23N 37°15' E 023°45'910.3
2016-Aug-21 00:32N 37°22' E 023°38'1010.1
2016-Aug-20 23:33N 37°29' E 023°30'2 2.2
2016-Aug-20 22:33N 37°30' E 023°27'0 0.0
2016-Aug-20 21:34N 37°30' E 023°27'0 0.0
2016-Aug-20 20:33N 37°30' E 023°27'0 0.0
2016-Aug-20 19:33N 37°30' E 023°27'0 0.0
2016-Aug-20 18:33N 37°30' E 023°27'0 0.0
2016-Aug-20 17:33N 37°30' E 023°27'0 0.0
2016-Aug-20 16:33N 37°30' E 023°27'0 0.1
2016-Aug-20 15:33N 37°30' E 023°27'8 7.8
2016-Aug-20 14:33N 37°38' E 023°30'1010.3
2016-Aug-20 13:33N 37°47' E 023°35'9 9.3
2016-Aug-20 12:33N 37°56' E 023°39'0 0.0
2016-Aug-20 11:33N 37°56' E 023°39'0 0.0
2016-Aug-20 10:33N 37°56' E 023°39'0 0.0
2016-Aug-20 09:33N 37°56' E 023°39'0 0.0
2016-Aug-20 08:33N 37°56' E 023°39'0 0.0
2016-Aug-20 07:34N 37°56' E 023°39'0 0.0
2016-Aug-20 06:33N 37°56' E 023°39'0 0.0
2016-Aug-20 05:33N 37°56' E 023°39'0 0.0
2016-Aug-20 04:33N 37°56' E 023°39'0 0.0
2016-Aug-20 03:33N 37°56' E 023°39'0 0.0
2016-Aug-20 02:33N 37°56' E 023°39'5 5.0
2016-Aug-20 01:33N 37°51' E 023°42'10 9.5
2016-Aug-20 00:33N 37°43' E 023°48'10 9.6
2016-Aug-19 23:33N 37°38' E 023°58'53 9.8
2016-Aug-19 18:08N 37°30' E 025°04'610.1
2016-Aug-19 17:33N 37°29' E 025°12'7 6.6
2016-Aug-19 16:33N 37°28' E 025°20'0 0.0
2016-Aug-19 15:27N 37°28' E 025°20'0 0.0
2016-Aug-19 14:33N 37°28' E 025°20'0 0.0
2016-Aug-19 13:33N 37°28' E 025°20'0 0.0
2016-Aug-19 12:32N 37°28' E 025°20'0 0.0
2016-Aug-19 11:32N 37°28' E 025°20'0 0.0
2016-Aug-19 10:29N 37°28' E 025°20'0 0.0
2016-Aug-19 09:33N 37°28' E 025°20'0 0.0
2016-Aug-19 08:33N 37°28' E 025°20'0 0.0
2016-Aug-19 07:33N 37°28' E 025°20'0 0.0
2016-Aug-19 06:33N 37°28' E 025°20'0 0.0
2016-Aug-19 05:25N 37°28' E 025°20'0 0.0
2016-Aug-19 04:29N 37°28' E 025°20'5 5.9
2016-Aug-19 03:33N 37°23' E 025°17'1010.1
2016-Aug-19 02:33N 37°13' E 025°19'10 9.7
2016-Aug-19 01:33N 37°03' E 025°18'57 2.3
2016-Aug-18 01:13N 37°08' E 024°07'7 9.9
2016-Aug-18 00:33N 37°11' E 024°00'1010.3
2016-Aug-17 23:33N 37°18' E 023°50'  

Dump ship's entire track history